sensor_id;sensor_type;location;lat;lon;timestamp;temperature;humidity
573;DHT22;271;51.114;13.780;2023-11-22T00:00:53;1.60;2.30
573;DHT22;271;51.114;13.780;2023-11-22T00:03:42;1.70;1.20
573;DHT22;271;51.114;13.780;2023-11-22T00:06:30;1.60;1.00
573;DHT22;271;51.114;13.780;2023-11-22T00:09:18;1.50;1.00
573;DHT22;271;51.114;13.780;2023-11-22T00:12:09;1.50;1.00
573;DHT22;271;51.114;13.780;2023-11-22T00:14:57;1.50;1.00
573;DHT22;271;51.114;13.780;2023-11-22T00:17:44;1.50;1.40
573;DHT22;271;51.114;13.780;2023-11-22T00:20:33;1.50;2.30
573;DHT22;271;51.114;13.780;2023-11-22T00:23:21;1.50;2.70
573;DHT22;271;51.114;13.780;2023-11-22T00:26:13;1.40;1.00
573;DHT22;271;51.114;13.780;2023-11-22T00:29:01;1.40;1.30
573;DHT22;271;51.114;13.780;2023-11-22T00:31:49;1.40;1.40
573;DHT22;271;51.114;13.780;2023-11-22T00:34:36;1.40;1.00
573;DHT22;271;51.114;13.780;2023-11-22T00:37:25;1.40;1.00
573;DHT22;271;51.114;13.780;2023-11-22T00:40:13;1.40;1.00
573;DHT22;271;51.114;13.780;2023-11-22T00:43:01;1.30;1.00
573;DHT22;271;51.114;13.780;2023-11-22T00:45:48;1.40;1.00
573;DHT22;271;51.114;13.780;2023-11-22T00:48:37;1.40;1.00
573;DHT22;271;51.114;13.780;2023-11-22T00:51:24;1.40;1.00
573;DHT22;271;51.114;13.780;2023-11-22T00:54:13;1.40;1.00
573;DHT22;271;51.114;13.780;2023-11-22T00:57:01;1.40;1.00
573;DHT22;271;51.114;13.780;2023-11-22T00:59:49;1.50;1.00
573;DHT22;271;51.114;13.780;2023-11-22T01:02:37;1.50;1.00
573;DHT22;271;51.114;13.780;2023-11-22T01:05:25;1.50;1.00
573;DHT22;271;51.114;13.780;2023-11-22T01:08:13;1.50;1.00
573;DHT22;271;51.114;13.780;2023-11-22T01:11:03;1.40;1.00
573;DHT22;271;51.114;13.780;2023-11-22T01:13:52;1.40;1.00
573;DHT22;271;51.114;13.780;2023-11-22T01:16:39;1.40;1.00
573;DHT22;271;51.114;13.780;2023-11-22T01:19:29;1.50;1.00
573;DHT22;271;51.114;13.780;2023-11-22T01:22:17;1.50;1.00
573;DHT22;271;51.114;13.780;2023-11-22T01:25:05;1.50;1.00
573;DHT22;271;51.114;13.780;2023-11-22T01:27:55;1.50;1.00
573;DHT22;271;51.114;13.780;2023-11-22T01:30:42;1.70;1.00
573;DHT22;271;51.114;13.780;2023-11-22T01:33:32;1.60;1.00
573;DHT22;271;51.114;13.780;2023-11-22T01:36:22;1.50;1.00
573;DHT22;271;51.114;13.780;2023-11-22T01:39:12;1.50;1.00
573;DHT22;271;51.114;13.780;2023-11-22T01:42:01;1.50;1.00
573;DHT22;271;51.114;13.780;2023-11-22T01:44:50;1.50;1.00
573;DHT22;271;51.114;13.780;2023-11-22T01:47:39;1.50;1.00
573;DHT22;271;51.114;13.780;2023-11-22T01:50:26;1.50;1.00
573;DHT22;271;51.114;13.780;2023-11-22T01:53:15;1.50;1.00
573;DHT22;271;51.114;13.780;2023-11-22T01:56:04;1.40;1.00
573;DHT22;271;51.114;13.780;2023-11-22T01:58:51;1.40;1.00
573;DHT22;271;51.114;13.780;2023-11-22T02:01:42;1.40;1.00
573;DHT22;271;51.114;13.780;2023-11-22T02:04:30;1.40;1.00
573;DHT22;271;51.114;13.780;2023-11-22T02:07:18;1.40;1.00
573;DHT22;271;51.114;13.780;2023-11-22T02:10:07;1.40;1.00
573;DHT22;271;51.114;13.780;2023-11-22T02:12:56;1.40;1.00
573;DHT22;271;51.114;13.780;2023-11-22T02:15:45;1.40;1.00
573;DHT22;271;51.114;13.780;2023-11-22T02:18:34;1.30;1.00
573;DHT22;271;51.114;13.780;2023-11-22T02:21:23;1.30;1.00
573;DHT22;271;51.114;13.780;2023-11-22T02:24:12;1.30;1.00
573;DHT22;271;51.114;13.780;2023-11-22T02:27:00;1.20;1.00
573;DHT22;271;51.114;13.780;2023-11-22T02:29:47;1.20;1.00
573;DHT22;271;51.114;13.780;2023-11-22T02:32:36;1.20;1.00
573;DHT22;271;51.114;13.780;2023-11-22T02:35:24;1.30;1.00
573;DHT22;271;51.114;13.780;2023-11-22T02:38:13;1.20;1.00
573;DHT22;271;51.114;13.780;2023-11-22T02:41:02;1.20;1.00
573;DHT22;271;51.114;13.780;2023-11-22T02:43:50;1.20;1.00
573;DHT22;271;51.114;13.780;2023-11-22T02:46:38;1.10;1.00
573;DHT22;271;51.114;13.780;2023-11-22T02:49:25;1.10;1.00
573;DHT22;271;51.114;13.780;2023-11-22T02:52:13;1.20;1.00
573;DHT22;271;51.114;13.780;2023-11-22T02:55:02;1.20;1.00
573;DHT22;271;51.114;13.780;2023-11-22T02:57:52;1.20;1.00
573;DHT22;271;51.114;13.780;2023-11-22T03:00:40;1.10;1.00
573;DHT22;271;51.114;13.780;2023-11-22T03:03:28;1.10;1.00
573;DHT22;271;51.114;13.780;2023-11-22T03:06:16;1.10;1.00
573;DHT22;271;51.114;13.780;2023-11-22T03:09:03;1.20;1.00
573;DHT22;271;51.114;13.780;2023-11-22T03:11:52;1.20;1.00
573;DHT22;271;51.114;13.780;2023-11-22T03:14:41;1.20;1.00
573;DHT22;271;51.114;13.780;2023-11-22T03:17:29;1.20;1.00
573;DHT22;271;51.114;13.780;2023-11-22T03:20:17;1.10;1.00
573;DHT22;271;51.114;13.780;2023-11-22T03:23:05;1.20;1.00
573;DHT22;271;51.114;13.780;2023-11-22T03:25:52;1.10;1.00
573;DHT22;271;51.114;13.780;2023-11-22T03:28:40;1.20;1.00
573;DHT22;271;51.114;13.780;2023-11-22T03:31:29;1.30;1.00
573;DHT22;271;51.114;13.780;2023-11-22T03:34:18;1.30;1.00
573;DHT22;271;51.114;13.780;2023-11-22T03:37:06;1.30;1.00
573;DHT22;271;51.114;13.780;2023-11-22T03:39:53;1.30;1.00
573;DHT22;271;51.114;13.780;2023-11-22T03:42:41;1.50;1.00
573;DHT22;271;51.114;13.780;2023-11-22T03:45:29;1.30;1.00
573;DHT22;271;51.114;13.780;2023-11-22T03:48:18;1.30;1.00
573;DHT22;271;51.114;13.780;2023-11-22T03:51:08;1.30;1.00
573;DHT22;271;51.114;13.780;2023-11-22T03:53:56;1.20;1.00
573;DHT22;271;51.114;13.780;2023-11-22T03:56:44;1.20;1.00
573;DHT22;271;51.114;13.780;2023-11-22T03:59:31;1.20;1.00
573;DHT22;271;51.114;13.780;2023-11-22T04:02:19;1.20;1.00
573;DHT22;271;51.114;13.780;2023-11-22T04:05:10;1.20;1.00
573;DHT22;271;51.114;13.780;2023-11-22T04:07:58;1.20;1.00
573;DHT22;271;51.114;13.780;2023-11-22T04:10:46;1.20;1.00
573;DHT22;271;51.114;13.780;2023-11-22T04:13:34;1.30;1.00
573;DHT22;271;51.114;13.780;2023-11-22T04:16:21;1.20;1.00
573;DHT22;271;51.114;13.780;2023-11-22T04:19:09;1.20;1.00
573;DHT22;271;51.114;13.780;2023-11-22T04:21:58;1.20;1.00
573;DHT22;271;51.114;13.780;2023-11-22T04:24:46;1.20;1.00
573;DHT22;271;51.114;13.780;2023-11-22T04:27:34;1.30;1.00
573;DHT22;271;51.114;13.780;2023-11-22T04:30:22;1.20;1.00
573;DHT22;271;51.114;13.780;2023-11-22T04:33:10;1.10;1.00
573;DHT22;271;51.114;13.780;2023-11-22T04:35:57;1.30;1.00
573;DHT22;271;51.114;13.780;2023-11-22T04:38:46;1.20;1.00
573;DHT22;271;51.114;13.780;2023-11-22T04:41:35;1.00;1.00
573;DHT22;271;51.114;13.780;2023-11-22T04:44:23;1.00;1.00
573;DHT22;271;51.114;13.780;2023-11-22T04:47:11;1.00;1.00
573;DHT22;271;51.114;13.780;2023-11-22T04:49:59;1.00;1.00
573;DHT22;271;51.114;13.780;2023-11-22T04:52:47;1.10;1.00
573;DHT22;271;51.114;13.780;2023-11-22T04:55:36;1.10;1.00
573;DHT22;271;51.114;13.780;2023-11-22T04:58:24;1.10;1.00
573;DHT22;271;51.114;13.780;2023-11-22T05:01:12;1.10;1.00
573;DHT22;271;51.114;13.780;2023-11-22T05:03:59;1.10;1.00
573;DHT22;271;51.114;13.780;2023-11-22T05:06:47;1.10;1.00
573;DHT22;271;51.114;13.780;2023-11-22T05:09:35;1.20;1.00
573;DHT22;271;51.114;13.780;2023-11-22T05:12:24;1.10;1.00
573;DHT22;271;51.114;13.780;2023-11-22T05:15:11;1.10;1.00
573;DHT22;271;51.114;13.780;2023-11-22T05:18:00;1.10;1.00
573;DHT22;271;51.114;13.780;2023-11-22T05:20:48;1.10;1.00
573;DHT22;271;51.114;13.780;2023-11-22T05:23:35;1.00;1.00
573;DHT22;271;51.114;13.780;2023-11-22T05:26:23;1.10;1.00
573;DHT22;271;51.114;13.780;2023-11-22T05:29:13;1.10;1.00
573;DHT22;271;51.114;13.780;2023-11-22T05:32:00;1.10;1.00
573;DHT22;271;51.114;13.780;2023-11-22T05:34:48;1.00;1.00
573;DHT22;271;51.114;13.780;2023-11-22T05:37:36;1.00;1.00
573;DHT22;271;51.114;13.780;2023-11-22T05:40:24;1.00;1.00
573;DHT22;271;51.114;13.780;2023-11-22T05:43:12;1.00;1.00
573;DHT22;271;51.114;13.780;2023-11-22T05:46:01;0.90;1.00
573;DHT22;271;51.114;13.780;2023-11-22T05:48:48;1.00;1.00
573;DHT22;271;51.114;13.780;2023-11-22T05:51:37;1.00;1.00
573;DHT22;271;51.114;13.780;2023-11-22T05:54:25;1.00;1.00
573;DHT22;271;51.114;13.780;2023-11-22T05:57:13;1.10;1.00
573;DHT22;271;51.114;13.780;2023-11-22T06:00:01;1.10;1.00
573;DHT22;271;51.114;13.780;2023-11-22T06:02:50;1.00;1.00
573;DHT22;271;51.114;13.780;2023-11-22T06:05:38;1.00;1.00
573;DHT22;271;51.114;13.780;2023-11-22T06:08:26;1.00;1.00
573;DHT22;271;51.114;13.780;2023-11-22T06:11:14;1.00;1.00
573;DHT22;271;51.114;13.780;2023-11-22T06:14:02;1.00;1.00
573;DHT22;271;51.114;13.780;2023-11-22T06:16:50;1.00;1.00
573;DHT22;271;51.114;13.780;2023-11-22T06:19:39;1.00;1.00
573;DHT22;271;51.114;13.780;2023-11-22T06:22:27;1.00;1.00
573;DHT22;271;51.114;13.780;2023-11-22T06:25:15;1.10;1.00
573;DHT22;271;51.114;13.780;2023-11-22T06:28:03;1.10;1.00
573;DHT22;271;51.114;13.780;2023-11-22T06:30:54;1.00;1.00
573;DHT22;271;51.114;13.780;2023-11-22T06:33:41;1.00;1.00
573;DHT22;271;51.114;13.780;2023-11-22T06:36:30;1.00;1.00
573;DHT22;271;51.114;13.780;2023-11-22T06:39:18;0.90;1.00
573;DHT22;271;51.114;13.780;2023-11-22T06:42:06;0.90;1.00
573;DHT22;271;51.114;13.780;2023-11-22T06:44:54;0.90;1.00
573;DHT22;271;51.114;13.780;2023-11-22T06:47:45;0.90;1.00
573;DHT22;271;51.114;13.780;2023-11-22T06:50:32;0.80;1.00
573;DHT22;271;51.114;13.780;2023-11-22T06:53:22;0.80;1.00
573;DHT22;271;51.114;13.780;2023-11-22T06:56:12;0.80;1.00
573;DHT22;271;51.114;13.780;2023-11-22T06:59:00;0.80;1.00
573;DHT22;271;51.114;13.780;2023-11-22T07:01:50;0.80;1.00
573;DHT22;271;51.114;13.780;2023-11-22T07:04:38;0.80;1.00
573;DHT22;271;51.114;13.780;2023-11-22T07:07:25;0.80;1.00
573;DHT22;271;51.114;13.780;2023-11-22T07:10:15;0.90;1.00
573;DHT22;271;51.114;13.780;2023-11-22T07:13:02;0.90;1.00
573;DHT22;271;51.114;13.780;2023-11-22T07:15:50;0.80;1.00
573;DHT22;271;51.114;13.780;2023-11-22T07:18:38;0.90;1.00
573;DHT22;271;51.114;13.780;2023-11-22T07:21:27;0.90;1.00
573;DHT22;271;51.114;13.780;2023-11-22T07:24:14;0.90;1.00
573;DHT22;271;51.114;13.780;2023-11-22T07:27:04;0.90;1.00
573;DHT22;271;51.114;13.780;2023-11-22T07:29:51;0.90;1.00
573;DHT22;271;51.114;13.780;2023-11-22T07:32:39;1.00;1.00
573;DHT22;271;51.114;13.780;2023-11-22T07:35:27;0.90;1.00
573;DHT22;271;51.114;13.780;2023-11-22T07:38:15;0.90;1.00
573;DHT22;271;51.114;13.780;2023-11-22T07:41:03;1.00;1.00
573;DHT22;271;51.114;13.780;2023-11-22T07:43:52;1.10;1.00
573;DHT22;271;51.114;13.780;2023-11-22T07:46:42;1.10;1.00
573;DHT22;271;51.114;13.780;2023-11-22T07:49:30;1.10;1.00
573;DHT22;271;51.114;13.780;2023-11-22T07:52:22;1.10;1.00
573;DHT22;271;51.114;13.780;2023-11-22T07:55:15;1.00;1.00
573;DHT22;271;51.114;13.780;2023-11-22T07:58:04;1.00;1.00
573;DHT22;271;51.114;13.780;2023-11-22T08:00:55;1.00;1.00
573;DHT22;271;51.114;13.780;2023-11-22T08:03:42;1.00;1.00
573;DHT22;271;51.114;13.780;2023-11-22T08:06:33;1.00;1.00
573;DHT22;271;51.114;13.780;2023-11-22T08:09:22;1.10;1.00
573;DHT22;271;51.114;13.780;2023-11-22T08:12:11;1.10;1.00
573;DHT22;271;51.114;13.780;2023-11-22T08:14:59;1.10;1.00
573;DHT22;271;51.114;13.780;2023-11-22T08:17:49;1.10;1.00
573;DHT22;271;51.114;13.780;2023-11-22T08:20:37;1.00;1.00
573;DHT22;271;51.114;13.780;2023-11-22T08:23:25;1.00;1.00
573;DHT22;271;51.114;13.780;2023-11-22T08:26:13;1.00;1.00
573;DHT22;271;51.114;13.780;2023-11-22T08:29:01;0.90;1.00
573;DHT22;271;51.114;13.780;2023-11-22T08:31:48;0.90;1.00
573;DHT22;271;51.114;13.780;2023-11-22T08:34:39;0.90;1.00
573;DHT22;271;51.114;13.780;2023-11-22T08:37:26;0.90;1.00
573;DHT22;271;51.114;13.780;2023-11-22T08:40:15;0.90;1.00
573;DHT22;271;51.114;13.780;2023-11-22T08:43:06;1.00;1.00
573;DHT22;271;51.114;13.780;2023-11-22T08:45:54;0.90;1.00
573;DHT22;271;51.114;13.780;2023-11-22T08:48:42;0.90;1.00
573;DHT22;271;51.114;13.780;2023-11-22T08:51:31;1.10;1.00
573;DHT22;271;51.114;13.780;2023-11-22T08:54:20;1.00;1.00
573;DHT22;271;51.114;13.780;2023-11-22T08:57:08;1.00;1.00
573;DHT22;271;51.114;13.780;2023-11-22T08:59:56;1.00;1.00
573;DHT22;271;51.114;13.780;2023-11-22T09:02:48;1.10;1.00
573;DHT22;271;51.114;13.780;2023-11-22T09:05:36;0.80;1.00
573;DHT22;271;51.114;13.780;2023-11-22T09:08:25;0.80;1.00
573;DHT22;271;51.114;13.780;2023-11-22T09:11:13;1.00;1.00
573;DHT22;271;51.114;13.780;2023-11-22T09:14:02;1.00;1.00
573;DHT22;271;51.114;13.780;2023-11-22T09:16:51;1.00;1.00
573;DHT22;271;51.114;13.780;2023-11-22T09:19:40;1.10;1.00
573;DHT22;271;51.114;13.780;2023-11-22T09:22:28;1.10;1.00
573;DHT22;271;51.114;13.780;2023-11-22T09:25:18;1.20;1.00
573;DHT22;271;51.114;13.780;2023-11-22T09:28:06;1.10;1.00
573;DHT22;271;51.114;13.780;2023-11-22T09:30:55;1.10;1.00
573;DHT22;271;51.114;13.780;2023-11-22T09:33:48;1.20;1.00
573;DHT22;271;51.114;13.780;2023-11-22T09:36:35;1.30;1.00
573;DHT22;271;51.114;13.780;2023-11-22T09:39:23;1.30;1.00
573;DHT22;271;51.114;13.780;2023-11-22T09:42:12;1.10;1.00
573;DHT22;271;51.114;13.780;2023-11-22T09:45:00;1.10;1.00
573;DHT22;271;51.114;13.780;2023-11-22T09:47:48;1.30;1.00
573;DHT22;271;51.114;13.780;2023-11-22T09:50:40;1.30;1.00
573;DHT22;271;51.114;13.780;2023-11-22T09:53:32;1.30;1.00
573;DHT22;271;51.114;13.780;2023-11-22T09:56:20;1.40;1.00
573;DHT22;271;51.114;13.780;2023-11-22T09:59:13;1.40;1.00
573;DHT22;271;51.114;13.780;2023-11-22T10:02:01;1.50;1.00
573;DHT22;271;51.114;13.780;2023-11-22T10:04:54;1.40;1.00
573;DHT22;271;51.114;13.780;2023-11-22T10:07:46;1.40;1.00
573;DHT22;271;51.114;13.780;2023-11-22T10:10:36;1.50;1.00
573;DHT22;271;51.114;13.780;2023-11-22T10:13:24;1.60;1.00
573;DHT22;271;51.114;13.780;2023-11-22T10:16:14;1.60;1.00
573;DHT22;271;51.114;13.780;2023-11-22T10:19:03;1.60;1.00
573;DHT22;271;51.114;13.780;2023-11-22T10:22:02;1.60;1.00
573;DHT22;271;51.114;13.780;2023-11-22T10:24:51;1.70;1.00
573;DHT22;271;51.114;13.780;2023-11-22T10:27:41;1.80;1.00
573;DHT22;271;51.114;13.780;2023-11-22T10:30:29;1.90;1.00
573;DHT22;271;51.114;13.780;2023-11-22T10:33:18;1.70;1.00
573;DHT22;271;51.114;13.780;2023-11-22T10:36:09;1.70;1.00
573;DHT22;271;51.114;13.780;2023-11-22T10:38:58;1.80;1.00
573;DHT22;271;51.114;13.780;2023-11-22T10:41:47;1.70;1.00
573;DHT22;271;51.114;13.780;2023-11-22T10:44:37;1.70;1.00
573;DHT22;271;51.114;13.780;2023-11-22T10:47:27;1.60;1.00
573;DHT22;271;51.114;13.780;2023-11-22T10:50:18;1.60;1.00
573;DHT22;271;51.114;13.780;2023-11-22T10:53:07;1.60;1.00
573;DHT22;271;51.114;13.780;2023-11-22T10:56:05;1.50;1.00
573;DHT22;271;51.114;13.780;2023-11-22T10:58:58;1.50;1.00
573;DHT22;271;51.114;13.780;2023-11-22T11:01:47;1.50;1.00
573;DHT22;271;51.114;13.780;2023-11-22T11:04:44;1.50;1.00
573;DHT22;271;51.114;13.780;2023-11-22T11:07:38;1.60;1.00
573;DHT22;271;51.114;13.780;2023-11-22T11:10:28;1.60;1.00
573;DHT22;271;51.114;13.780;2023-11-22T11:13:18;1.60;1.00
573;DHT22;271;51.114;13.780;2023-11-22T11:16:06;1.60;1.00
573;DHT22;271;51.114;13.780;2023-11-22T11:18:55;1.80;1.00
573;DHT22;271;51.114;13.780;2023-11-22T11:21:43;1.70;1.00
573;DHT22;271;51.114;13.780;2023-11-22T11:24:38;1.70;1.00
573;DHT22;271;51.114;13.780;2023-11-22T11:27:27;1.60;1.00
573;DHT22;271;51.114;13.780;2023-11-22T11:30:43;1.70;1.00
573;DHT22;271;51.114;13.780;2023-11-22T11:33:33;1.60;1.00
573;DHT22;271;51.114;13.780;2023-11-22T11:36:23;1.60;1.00
573;DHT22;271;51.114;13.780;2023-11-22T11:39:13;1.80;1.00
573;DHT22;271;51.114;13.780;2023-11-22T11:42:09;1.80;1.00
573;DHT22;271;51.114;13.780;2023-11-22T11:45:04;1.60;1.00
573;DHT22;271;51.114;13.780;2023-11-22T11:47:53;1.60;1.00
573;DHT22;271;51.114;13.780;2023-11-22T11:50:40;1.80;1.00
573;DHT22;271;51.114;13.780;2023-11-22T11:53:28;1.80;1.00
573;DHT22;271;51.114;13.780;2023-11-22T11:56:17;1.70;1.00
573;DHT22;271;51.114;13.780;2023-11-22T11:59:08;1.80;1.00
573;DHT22;271;51.114;13.780;2023-11-22T12:01:56;1.80;1.00
573;DHT22;271;51.114;13.780;2023-11-22T12:04:44;1.70;1.00
573;DHT22;271;51.114;13.780;2023-11-22T12:07:32;1.60;1.00
573;DHT22;271;51.114;13.780;2023-11-22T12:10:19;1.50;1.00
573;DHT22;271;51.114;13.780;2023-11-22T12:13:08;1.50;1.00
573;DHT22;271;51.114;13.780;2023-11-22T12:16:00;1.50;1.00
573;DHT22;271;51.114;13.780;2023-11-22T12:18:49;1.60;1.00
573;DHT22;271;51.114;13.780;2023-11-22T12:21:37;1.60;1.00
573;DHT22;271;51.114;13.780;2023-11-22T12:24:25;1.60;1.00
573;DHT22;271;51.114;13.780;2023-11-22T12:27:13;1.50;1.00
573;DHT22;271;51.114;13.780;2023-11-22T12:30:01;1.60;1.00
573;DHT22;271;51.114;13.780;2023-11-22T12:32:53;1.60;1.00
573;DHT22;271;51.114;13.780;2023-11-22T12:35:42;1.50;1.00
573;DHT22;271;51.114;13.780;2023-11-22T12:38:30;1.50;1.00
573;DHT22;271;51.114;13.780;2023-11-22T12:41:19;1.60;1.00
573;DHT22;271;51.114;13.780;2023-11-22T12:44:07;1.60;1.00
573;DHT22;271;51.114;13.780;2023-11-22T12:46:55;1.60;1.00
573;DHT22;271;51.114;13.780;2023-11-22T12:49:47;1.70;1.00
573;DHT22;271;51.114;13.780;2023-11-22T12:52:36;1.70;1.00
573;DHT22;271;51.114;13.780;2023-11-22T12:55:24;1.80;1.00
573;DHT22;271;51.114;13.780;2023-11-22T12:58:12;1.60;1.00
573;DHT22;271;51.114;13.780;2023-11-22T13:01:01;1.40;1.00
573;DHT22;271;51.114;13.780;2023-11-22T13:03:49;1.30;1.00
573;DHT22;271;51.114;13.780;2023-11-22T13:06:41;1.50;1.00
573;DHT22;271;51.114;13.780;2023-11-22T13:09:29;1.50;1.00
573;DHT22;271;51.114;13.780;2023-11-22T13:12:22;1.40;1.00
573;DHT22;271;51.114;13.780;2023-11-22T13:15:11;1.50;1.00
573;DHT22;271;51.114;13.780;2023-11-22T13:18:10;1.40;1.00
573;DHT22;271;51.114;13.780;2023-11-22T13:20:59;1.60;1.00
573;DHT22;271;51.114;13.780;2023-11-22T13:24:05;1.20;1.00
573;DHT22;271;51.114;13.780;2023-11-22T13:27:04;1.20;1.00
573;DHT22;271;51.114;13.780;2023-11-22T13:30:25;1.20;1.00
573;DHT22;271;51.114;13.780;2023-11-22T13:33:15;1.40;1.00
573;DHT22;271;51.114;13.780;2023-11-22T13:36:09;1.40;1.00
573;DHT22;271;51.114;13.780;2023-11-22T13:39:05;1.40;1.00
573;DHT22;271;51.114;13.780;2023-11-22T13:42:08;1.40;1.00
573;DHT22;271;51.114;13.780;2023-11-22T13:45:03;1.30;1.00
573;DHT22;271;51.114;13.780;2023-11-22T13:48:22;1.40;1.00
573;DHT22;271;51.114;13.780;2023-11-22T13:51:13;1.40;1.00
573;DHT22;271;51.114;13.780;2023-11-22T13:54:01;1.10;1.00
573;DHT22;271;51.114;13.780;2023-11-22T13:56:51;1.30;1.00
573;DHT22;271;51.114;13.780;2023-11-22T13:59:39;1.20;1.00
573;DHT22;271;51.114;13.780;2023-11-22T14:02:27;1.00;1.00
573;DHT22;271;51.114;13.780;2023-11-22T14:05:15;1.10;1.00
573;DHT22;271;51.114;13.780;2023-11-22T14:08:04;1.20;1.00
573;DHT22;271;51.114;13.780;2023-11-22T14:10:52;1.00;1.00
573;DHT22;271;51.114;13.780;2023-11-22T14:13:43;1.10;1.00
573;DHT22;271;51.114;13.780;2023-11-22T14:16:31;1.10;1.00
573;DHT22;271;51.114;13.780;2023-11-22T14:19:21;1.10;1.00
573;DHT22;271;51.114;13.780;2023-11-22T14:22:09;1.20;1.00
573;DHT22;271;51.114;13.780;2023-11-22T14:24:57;1.30;1.00
573;DHT22;271;51.114;13.780;2023-11-22T14:27:47;1.20;1.00
573;DHT22;271;51.114;13.780;2023-11-22T14:30:40;1.10;1.00
573;DHT22;271;51.114;13.780;2023-11-22T14:33:32;1.10;1.00
573;DHT22;271;51.114;13.780;2023-11-22T14:36:21;1.00;1.00
573;DHT22;271;51.114;13.780;2023-11-22T14:39:09;1.20;1.00
573;DHT22;271;51.114;13.780;2023-11-22T14:41:58;1.20;1.00
573;DHT22;271;51.114;13.780;2023-11-22T14:44:48;1.10;1.00
573;DHT22;271;51.114;13.780;2023-11-22T14:47:38;1.20;1.00
573;DHT22;271;51.114;13.780;2023-11-22T14:50:27;0.70;1.00
573;DHT22;271;51.114;13.780;2023-11-22T14:53:15;1.00;1.00
573;DHT22;271;51.114;13.780;2023-11-22T14:56:03;1.20;1.00
573;DHT22;271;51.114;13.780;2023-11-22T14:58:51;1.10;1.00
573;DHT22;271;51.114;13.780;2023-11-22T15:01:40;1.10;1.00
573;DHT22;271;51.114;13.780;2023-11-22T15:04:31;1.10;1.00
573;DHT22;271;51.114;13.780;2023-11-22T15:07:21;1.00;1.00
573;DHT22;271;51.114;13.780;2023-11-22T15:10:09;1.00;1.00
573;DHT22;271;51.114;13.780;2023-11-22T15:12:57;1.10;1.00
573;DHT22;271;51.114;13.780;2023-11-22T15:15:45;1.20;1.00
573;DHT22;271;51.114;13.780;2023-11-22T15:18:33;1.20;1.00
573;DHT22;271;51.114;13.780;2023-11-22T15:21:23;1.10;1.00
573;DHT22;271;51.114;13.780;2023-11-22T15:24:11;1.10;1.00
573;DHT22;271;51.114;13.780;2023-11-22T15:26:59;1.10;1.00
573;DHT22;271;51.114;13.780;2023-11-22T15:29:47;1.00;1.00
573;DHT22;271;51.114;13.780;2023-11-22T15:32:35;1.00;1.00
573;DHT22;271;51.114;13.780;2023-11-22T15:35:25;1.00;1.00
573;DHT22;271;51.114;13.780;2023-11-22T15:38:14;1.10;1.00
573;DHT22;271;51.114;13.780;2023-11-22T15:41:02;1.00;1.00
573;DHT22;271;51.114;13.780;2023-11-22T15:43:52;1.10;1.00
573;DHT22;271;51.114;13.780;2023-11-22T15:46:40;1.10;1.00
573;DHT22;271;51.114;13.780;2023-11-22T15:49:29;1.10;1.00
573;DHT22;271;51.114;13.780;2023-11-22T15:52:16;1.00;1.00
573;DHT22;271;51.114;13.780;2023-11-22T15:55:06;0.90;1.00
573;DHT22;271;51.114;13.780;2023-11-22T15:57:55;1.00;1.00
573;DHT22;271;51.114;13.780;2023-11-22T16:00:44;1.00;1.00
573;DHT22;271;51.114;13.780;2023-11-22T16:03:31;1.10;1.00
573;DHT22;271;51.114;13.780;2023-11-22T16:06:20;1.00;1.00
573;DHT22;271;51.114;13.780;2023-11-22T16:09:09;0.90;1.00
573;DHT22;271;51.114;13.780;2023-11-22T16:12:00;0.90;1.00
573;DHT22;271;51.114;13.780;2023-11-22T16:14:48;0.90;1.00
573;DHT22;271;51.114;13.780;2023-11-22T16:17:36;1.00;1.00
573;DHT22;271;51.114;13.780;2023-11-22T16:20:24;1.10;1.00
573;DHT22;271;51.114;13.780;2023-11-22T16:23:12;1.10;1.00
573;DHT22;271;51.114;13.780;2023-11-22T16:26:01;1.00;1.00
573;DHT22;271;51.114;13.780;2023-11-22T16:28:51;1.10;1.00
573;DHT22;271;51.114;13.780;2023-11-22T16:31:39;1.10;1.00
573;DHT22;271;51.114;13.780;2023-11-22T16:34:26;0.90;1.00
573;DHT22;271;51.114;13.780;2023-11-22T16:37:14;1.00;1.00
573;DHT22;271;51.114;13.780;2023-11-22T16:40:02;1.10;1.00
573;DHT22;271;51.114;13.780;2023-11-22T16:42:53;1.00;1.00
573;DHT22;271;51.114;13.780;2023-11-22T16:45:46;1.20;1.00
573;DHT22;271;51.114;13.780;2023-11-22T16:48:34;1.10;1.00
573;DHT22;271;51.114;13.780;2023-11-22T16:51:22;1.10;1.00
573;DHT22;271;51.114;13.780;2023-11-22T16:54:10;1.10;1.00
573;DHT22;271;51.114;13.780;2023-11-22T16:56:58;1.10;1.00
573;DHT22;271;51.114;13.780;2023-11-22T16:59:46;1.10;1.00
573;DHT22;271;51.114;13.780;2023-11-22T17:02:35;1.40;1.00
573;DHT22;271;51.114;13.780;2023-11-22T17:05:23;1.20;1.00
573;DHT22;271;51.114;13.780;2023-11-22T17:08:11;1.20;1.00
573;DHT22;271;51.114;13.780;2023-11-22T17:10:59;1.10;1.00
573;DHT22;271;51.114;13.780;2023-11-22T17:13:46;1.20;1.00
573;DHT22;271;51.114;13.780;2023-11-22T17:16:34;1.20;1.00
573;DHT22;271;51.114;13.780;2023-11-22T17:19:23;1.20;1.00
573;DHT22;271;51.114;13.780;2023-11-22T17:22:11;1.10;1.00
573;DHT22;271;51.114;13.780;2023-11-22T17:24:59;1.10;1.00
573;DHT22;271;51.114;13.780;2023-11-22T17:27:54;1.10;1.00
573;DHT22;271;51.114;13.780;2023-11-22T17:30:42;1.10;1.00
573;DHT22;271;51.114;13.780;2023-11-22T17:33:30;1.10;1.00
573;DHT22;271;51.114;13.780;2023-11-22T17:36:19;1.20;1.00
573;DHT22;271;51.114;13.780;2023-11-22T17:39:07;1.20;1.00
573;DHT22;271;51.114;13.780;2023-11-22T17:41:55;1.10;1.00
573;DHT22;271;51.114;13.780;2023-11-22T17:44:43;1.10;1.00
573;DHT22;271;51.114;13.780;2023-11-22T17:47:36;1.10;1.00
573;DHT22;271;51.114;13.780;2023-11-22T17:50:23;1.20;1.00
573;DHT22;271;51.114;13.780;2023-11-22T17:53:13;1.10;1.00
573;DHT22;271;51.114;13.780;2023-11-22T17:56:00;1.20;1.00
573;DHT22;271;51.114;13.780;2023-11-22T17:58:50;1.10;1.00
573;DHT22;271;51.114;13.780;2023-11-22T18:01:37;1.10;1.00
573;DHT22;271;51.114;13.780;2023-11-22T18:04:25;1.10;1.00
573;DHT22;271;51.114;13.780;2023-11-22T18:07:13;1.10;1.00
573;DHT22;271;51.114;13.780;2023-11-22T18:10:02;1.20;1.00
573;DHT22;271;51.114;13.780;2023-11-22T18:12:51;1.20;1.00
573;DHT22;271;51.114;13.780;2023-11-22T18:15:39;1.20;1.00
573;DHT22;271;51.114;13.780;2023-11-22T18:18:29;1.20;1.00
573;DHT22;271;51.114;13.780;2023-11-22T18:21:16;1.30;1.00
573;DHT22;271;51.114;13.780;2023-11-22T18:24:05;1.40;1.00
573;DHT22;271;51.114;13.780;2023-11-22T18:26:58;1.40;1.00
573;DHT22;271;51.114;13.780;2023-11-22T18:29:46;1.40;1.00
573;DHT22;271;51.114;13.780;2023-11-22T18:32:34;1.30;1.00
573;DHT22;271;51.114;13.780;2023-11-22T18:35:21;1.20;1.00
573;DHT22;271;51.114;13.780;2023-11-22T18:38:10;1.10;1.00
573;DHT22;271;51.114;13.780;2023-11-22T18:40:57;1.10;1.00
573;DHT22;271;51.114;13.780;2023-11-22T18:43:48;1.00;1.00
573;DHT22;271;51.114;13.780;2023-11-22T18:46:35;1.00;1.00
573;DHT22;271;51.114;13.780;2023-11-22T18:49:23;1.10;1.00
573;DHT22;271;51.114;13.780;2023-11-22T18:52:14;1.10;1.00
573;DHT22;271;51.114;13.780;2023-11-22T18:55:04;1.00;1.00
573;DHT22;271;51.114;13.780;2023-11-22T18:57:52;1.00;1.00
573;DHT22;271;51.114;13.780;2023-11-22T19:00:41;1.10;1.00
573;DHT22;271;51.114;13.780;2023-11-22T19:03:29;1.10;1.00
573;DHT22;271;51.114;13.780;2023-11-22T19:06:16;1.10;1.00
573;DHT22;271;51.114;13.780;2023-11-22T19:09:05;1.10;1.00
573;DHT22;271;51.114;13.780;2023-11-22T19:11:56;1.20;1.00
573;DHT22;271;51.114;13.780;2023-11-22T19:14:44;1.20;1.00
573;DHT22;271;51.114;13.780;2023-11-22T19:17:33;1.20;1.00
573;DHT22;271;51.114;13.780;2023-11-22T19:20:21;1.20;1.00